Time;durP1;ratioP1;P1;durP2;ratioP2;P2;SDS_P1;SDS_P2;PMS_P1;PMS_P2;Temp;Humidity;BMP_temperature;BMP_pressure;BME280_temperature;BME280_humidity;BME280_pressure;Samples;Min_cycle;Max_cycle;Signal;HPM_P1;HPM_P2
2024/03/01 00:01:31;;;;;;;45.47;18.58;;;;;;;;;;5072996;28;20021;-57
2024/03/01 00:03:57;;;;;;;45.25;18.95;;;;;;;;;;5079633;28;20107;-55
2024/03/01 00:06:23;;;;;;;47.88;19.67;;;;;;;;;;5071153;28;20087;-56
2024/03/01 00:08:49;;;;;;;46.03;20.25;;;;;;;;;;5075936;28;20044;-57
2024/03/01 00:11:15;;;;;;;43.40;18.20;;;;;;;;;;5082037;28;20027;-57
2024/03/01 00:13:42;;;;;;;49.33;19.25;;;;;;;;;;5075784;28;20050;-56
2024/03/01 00:16:08;;;;;;;46.78;19.13;;;;;;;;;;5071292;28;20027;-56
2024/03/01 00:18:34;;;;;;;40.80;17.73;;;;;;;;;;5088400;28;20495;-57
2024/03/01 00:21:00;;;;;;;42.00;19.67;;;;;;;;;;5101116;28;20030;-57
2024/03/01 00:23:26;;;;;;;49.22;20.17;;;;;;;;;;5101449;28;20507;-55
2024/03/01 00:25:53;;;;;;;44.92;18.52;;;;;;;;;;5092609;28;20034;-57
2024/03/01 00:28:20;;;;;;;46.75;19.38;;;;;;;;;;5080682;28;20028;-53
2024/03/01 00:30:46;;;;;;;46.50;19.25;;;;;;;;;;5085255;28;20020;-54
2024/03/01 00:33:12;;;;;;;49.72;19.50;;;;;;;;;;5104149;28;20123;-54
2024/03/01 00:35:38;;;;;;;47.58;18.50;;;;;;;;;;5095626;28;20028;-54
2024/03/01 00:38:04;;;;;;;50.53;20.10;;;;;;;;;;5100686;28;20036;-54
2024/03/01 00:40:30;;;;;;;46.90;18.80;;;;;;;;;;5100982;28;20043;-54
2024/03/01 00:42:56;;;;;;;48.05;19.50;;;;;;;;;;5097862;28;21692;-54
2024/03/01 00:45:22;;;;;;;48.72;19.25;;;;;;;;;;5099297;28;20110;-54
2024/03/01 00:47:50;;;;;;;46.60;20.15;;;;;;;;;;5099494;28;20027;-54
2024/03/01 00:50:16;;;;;;;51.47;21.42;;;;;;;;;;5101723;28;20435;-54
2024/03/01 00:52:45;;;;;;;54.55;20.45;;;;;;;;;;5075951;28;20123;-54
2024/03/01 00:55:11;;;;;;;54.78;20.42;;;;;;;;;;5092951;28;20130;-55
2024/03/01 00:57:37;;;;;;;48.10;19.98;;;;;;;;;;5096498;28;20027;-53
2024/03/01 01:00:06;;;;;;;55.40;20.92;;;;;;;;;;5098066;28;20032;-53
2024/03/01 01:02:32;;;;;;;56.45;21.92;;;;;;;;;;5105298;28;20028;-55
2024/03/01 01:04:58;;;;;;;54.80;20.90;;;;;;;;;;5110818;28;20123;-53
2024/03/01 01:07:24;;;;;;;59.25;23.38;;;;;;;;;;5094568;28;20040;-54
2024/03/01 01:09:50;;;;;;;60.58;23.50;;;;;;;;;;5100353;28;20039;-55
2024/03/01 01:12:16;;;;;;;65.90;23.65;;;;;;;;;;5094503;28;20032;-55
2024/03/01 01:14:42;;;;;;;55.72;23.55;;;;;;;;;;5101875;28;20037;-54
2024/03/01 01:17:08;;;;;;;56.42;23.45;;;;;;;;;;5094388;28;20040;-54
2024/03/01 01:19:34;;;;;;;63.65;23.30;;;;;;;;;;5108349;28;20082;-52
2024/03/01 01:22:00;;;;;;;64.47;23.17;;;;;;;;;;5100378;28;20028;-55
2024/03/01 01:24:26;;;;;;;66.78;25.77;;;;;;;;;;5100626;28;20017;-54
2024/03/01 01:26:52;;;;;;;63.75;22.55;;;;;;;;;;5102757;28;20115;-54
2024/03/01 01:29:18;;;;;;;67.97;25.40;;;;;;;;;;5100871;28;20024;-55
2024/03/01 01:31:44;;;;;;;66.80;23.30;;;;;;;;;;5096383;28;20036;-55
2024/03/01 01:34:10;;;;;;;68.20;24.20;;;;;;;;;;5098870;28;20476;-55
2024/03/01 01:36:36;;;;;;;77.50;25.05;;;;;;;;;;5102574;28;20024;-54
2024/03/01 01:39:04;;;;;;;58.80;23.33;;;;;;;;;;5088663;28;20036;-58
2024/03/01 01:41:32;;;;;;;76.05;27.13;;;;;;;;;;5099593;28;20091;-57
2024/03/01 01:43:58;;;;;;;66.43;26.85;;;;;;;;;;5106169;28;20475;-58
2024/03/01 01:46:24;;;;;;;68.47;26.02;;;;;;;;;;5109227;28;20015;-58
2024/03/01 01:48:50;;;;;;;67.47;25.80;;;;;;;;;;5110300;28;20023;-58
2024/03/01 01:51:17;;;;;;;73.72;26.17;;;;;;;;;;5101493;28;20401;-57
2024/03/01 01:53:43;;;;;;;71.72;27.15;;;;;;;;;;5107887;28;20439;-58
2024/03/01 01:56:10;;;;;;;83.88;27.05;;;;;;;;;;5097819;28;20471;-58
2024/03/01 01:58:36;;;;;;;79.47;28.15;;;;;;;;;;5106789;28;20024;-57
2024/03/01 02:01:07;;;;;;;77.22;27.55;;;;;;;;;;5100099;28;20039;-58
2024/03/01 02:03:33;;;;;;;75.43;27.17;;;;;;;;;;5109552;28;20031;-58
2024/03/01 02:06:01;;;;;;;81.68;29.75;;;;;;;;;;5108610;28;20073;-57
2024/03/01 02:08:27;;;;;;;89.35;29.05;;;;;;;;;;5107061;28;20051;-58
2024/03/01 02:10:53;;;;;;;83.70;29.05;;;;;;;;;;5107559;28;20040;-58
2024/03/01 02:13:19;;;;;;;81.95;27.27;;;;;;;;;;5101547;28;20028;-57
2024/03/01 02:15:45;;;;;;;90.43;29.08;;;;;;;;;;5098567;28;20024;-58
2024/03/01 02:18:11;;;;;;;83.88;27.38;;;;;;;;;;5085354;28;20044;-57
2024/03/01 02:20:39;;;;;;;81.28;28.25;;;;;;;;;;5078698;28;20070;-57
2024/03/01 02:23:07;;;;;;;86.32;31.80;;;;;;;;;;5069194;28;20028;-56
2024/03/01 02:25:33;;;;;;;98.25;31.15;;;;;;;;;;5084134;28;20537;-58
2024/03/01 02:27:59;;;;;;;96.47;28.83;;;;;;;;;;5090324;28;20500;-57
2024/03/01 02:30:25;;;;;;;90.65;31.60;;;;;;;;;;5078162;28;20106;-58
2024/03/01 02:32:51;;;;;;;87.57;29.45;;;;;;;;;;5071934;28;20021;-58
2024/03/01 02:35:17;;;;;;;99.10;30.77;;;;;;;;;;5085275;28;20498;-57
2024/03/01 02:37:43;;;;;;;92.63;30.85;;;;;;;;;;5053827;28;20487;-57
2024/03/01 02:40:10;;;;;;;100.22;31.50;;;;;;;;;;5077652;28;20440;-57
2024/03/01 02:42:35;;;;;;;103.57;32.75;;;;;;;;;;5085505;28;20124;-57
2024/03/01 02:45:02;;;;;;;95.57;32.53;;;;;;;;;;5076556;28;20024;-58
2024/03/01 02:47:28;;;;;;;93.55;31.45;;;;;;;;;;5087691;28;20062;-58
2024/03/01 02:49:54;;;;;;;102.70;31.45;;;;;;;;;;5076251;28;20472;-58
2024/03/01 02:52:20;;;;;;;94.25;33.33;;;;;;;;;;5079406;28;20025;-56
2024/03/01 02:54:46;;;;;;;100.82;33.78;;;;;;;;;;5087875;28;20032;-57
2024/03/01 02:57:12;;;;;;;97.15;33.47;;;;;;;;;;5076098;28;20056;-56
2024/03/01 02:59:38;;;;;;;110.70;33.67;;;;;;;;;;5082787;28;20078;-57
2024/03/01 03:02:04;;;;;;;96.63;33.20;;;;;;;;;;5075608;28;20020;-56
2024/03/01 03:04:30;;;;;;;104.68;35.08;;;;;;;;;;5082602;28;20036;-57
2024/03/01 03:06:57;;;;;;;95.78;33.33;;;;;;;;;;5078234;28;20024;-56
2024/03/01 03:09:23;;;;;;;108.07;34.03;;;;;;;;;;5086550;28;20042;-56
2024/03/01 03:11:49;;;;;;;114.63;34.08;;;;;;;;;;5075064;28;20035;-55
2024/03/01 03:14:16;;;;;;;110.97;34.42;;;;;;;;;;5071652;28;20047;-58
2024/03/01 03:16:42;;;;;;;114.15;35.90;;;;;;;;;;5071640;28;20025;-58
2024/03/01 03:19:08;;;;;;;113.50;34.08;;;;;;;;;;5075953;28;20028;-57
2024/03/01 03:21:35;;;;;;;106.63;33.80;;;;;;;;;;5072387;28;20052;-57
2024/03/01 03:24:01;;;;;;;109.22;33.35;;;;;;;;;;5076414;28;20506;-57
2024/03/01 03:26:27;;;;;;;105.65;33.08;;;;;;;;;;5079823;28;20043;-57
2024/03/01 03:28:54;;;;;;;93.85;32.17;;;;;;;;;;5082147;28;20040;-57
2024/03/01 03:31:21;;;;;;;108.10;36.28;;;;;;;;;;5076501;28;20059;-56
2024/03/01 03:33:47;;;;;;;101.75;34.28;;;;;;;;;;5089856;28;20020;-57
2024/03/01 03:36:13;;;;;;;92.38;32.42;;;;;;;;;;5078661;28;20480;-57
2024/03/01 03:38:39;;;;;;;101.40;34.42;;;;;;;;;;5082713;28;20748;-56
2024/03/01 03:41:06;;;;;;;103.07;34.45;;;;;;;;;;5079278;28;20025;-56
2024/03/01 03:43:32;;;;;;;109.07;34.85;;;;;;;;;;5074256;28;20028;-57
2024/03/01 03:45:58;;;;;;;103.85;35.10;;;;;;;;;;5076718;28;20035;-57
2024/03/01 03:48:24;;;;;;;103.00;33.70;;;;;;;;;;5086088;28;20032;-57
2024/03/01 03:50:50;;;;;;;110.60;36.70;;;;;;;;;;5086518;28;20040;-57
2024/03/01 03:53:16;;;;;;;105.95;34.25;;;;;;;;;;5083041;28;20029;-57
2024/03/01 03:55:42;;;;;;;102.40;32.55;;;;;;;;;;5084604;28;20090;-56
2024/03/01 03:58:08;;;;;;;108.38;35.92;;;;;;;;;;5078375;28;20492;-55
2024/03/01 04:00:34;;;;;;;109.10;35.78;;;;;;;;;;5078321;28;20031;-54
2024/03/01 04:03:00;;;;;;;108.22;36.25;;;;;;;;;;5084308;28;20032;-55
2024/03/01 04:05:29;;;;;;;111.78;35.65;;;;;;;;;;5087152;28;20115;-53
2024/03/01 04:07:55;;;;;;;105.28;36.55;;;;;;;;;;5082640;28;20059;-54
2024/03/01 04:10:21;;;;;;;108.55;37.88;;;;;;;;;;5080561;28;20020;-53
2024/03/01 04:12:47;;;;;;;105.90;35.58;;;;;;;;;;5082917;28;20036;-54
2024/03/01 04:15:13;;;;;;;110.72;37.88;;;;;;;;;;5088536;28;20442;-54
2024/03/01 04:17:39;;;;;;;112.63;36.92;;;;;;;;;;5091481;28;20507;-54
2024/03/01 04:20:05;;;;;;;99.22;34.17;;;;;;;;;;5089717;28;20024;-55
2024/03/01 04:22:31;;;;;;;107.43;37.28;;;;;;;;;;5077013;28;20024;-55
2024/03/01 04:24:57;;;;;;;111.78;37.55;;;;;;;;;;5084137;28;20029;-54
2024/03/01 04:27:23;;;;;;;107.85;35.72;;;;;;;;;;5079888;28;20106;-54
2024/03/01 04:29:49;;;;;;;104.57;35.60;;;;;;;;;;5085021;28;20071;-53
2024/03/01 04:32:17;;;;;;;107.68;36.38;;;;;;;;;;5077587;28;20498;-54
2024/03/01 04:34:43;;;;;;;112.05;36.53;;;;;;;;;;5080761;28;20574;-54
2024/03/01 04:37:09;;;;;;;109.80;37.30;;;;;;;;;;5061127;28;20024;-54
2024/03/01 04:39:35;;;;;;;103.90;39.08;;;;;;;;;;5075323;28;20024;-54
2024/03/01 04:42:01;;;;;;;124.57;36.42;;;;;;;;;;5082539;28;20477;-53
2024/03/01 04:44:27;;;;;;;111.47;38.15;;;;;;;;;;5083978;28;20063;-54
2024/03/01 04:46:53;;;;;;;116.47;38.17;;;;;;;;;;5076403;28;20028;-55
2024/03/01 04:49:19;;;;;;;124.93;41.20;;;;;;;;;;5078473;28;20024;-54
2024/03/01 04:51:45;;;;;;;120.40;39.78;;;;;;;;;;5084253;28;20032;-54
2024/03/01 04:54:12;;;;;;;105.80;39.53;;;;;;;;;;5081647;28;20023;-53
2024/03/01 04:56:38;;;;;;;123.15;39.75;;;;;;;;;;5075124;28;20499;-55
2024/03/01 04:59:04;;;;;;;115.55;39.92;;;;;;;;;;5099007;28;20463;-55
2024/03/01 05:01:30;;;;;;;128.00;41.10;;;;;;;;;;5080066;28;20026;-54
2024/03/01 05:03:56;;;;;;;119.75;39.65;;;;;;;;;;5065928;28;20040;-55
2024/03/01 05:06:22;;;;;;;113.82;39.13;;;;;;;;;;5075034;28;20028;-54
2024/03/01 05:08:48;;;;;;;124.47;40.92;;;;;;;;;;5074054;28;20025;-55
2024/03/01 05:11:17;;;;;;;126.95;40.42;;;;;;;;;;5074604;28;20393;-53
2024/03/01 05:13:43;;;;;;;110.18;38.60;;;;;;;;;;5054288;28;20029;-54
2024/03/01 05:16:09;;;;;;;113.38;38.83;;;;;;;;;;5066074;28;20487;-55
2024/03/01 05:18:35;;;;;;;105.30;37.33;;;;;;;;;;5079243;28;20126;-54
2024/03/01 05:21:01;;;;;;;112.65;37.97;;;;;;;;;;5074952;28;20439;-54
2024/03/01 05:23:27;;;;;;;107.47;37.40;;;;;;;;;;5080312;28;20020;-54
2024/03/01 05:25:53;;;;;;;109.50;37.97;;;;;;;;;;5082435;28;20033;-54
2024/03/01 05:28:19;;;;;;;117.40;38.85;;;;;;;;;;5074313;28;20025;-54
2024/03/01 05:30:45;;;;;;;113.55;35.67;;;;;;;;;;5084379;28;20028;-55
2024/03/01 05:33:12;;;;;;;110.25;38.28;;;;;;;;;;5075091;28;20020;-53
2024/03/01 05:35:38;;;;;;;117.97;38.47;;;;;;;;;;5075879;28;20151;-54
2024/03/01 05:38:04;;;;;;;116.38;37.70;;;;;;;;;;5076875;28;20037;-54
2024/03/01 05:40:30;;;;;;;120.75;39.17;;;;;;;;;;5085855;28;20032;-54
2024/03/01 05:42:56;;;;;;;114.03;41.20;;;;;;;;;;5077503;28;20028;-53
2024/03/01 05:45:22;;;;;;;120.55;38.70;;;;;;;;;;5073434;28;20074;-54
2024/03/01 05:47:48;;;;;;;112.72;37.55;;;;;;;;;;5078874;28;20111;-53
2024/03/01 05:50:15;;;;;;;111.47;37.80;;;;;;;;;;5077611;28;20109;-54
2024/03/01 05:52:42;;;;;;;115.88;37.55;;;;;;;;;;5087965;28;20133;-54
2024/03/01 05:55:08;;;;;;;110.60;37.40;;;;;;;;;;5077385;28;20448;-53
2024/03/01 05:57:35;;;;;;;126.75;40.55;;;;;;;;;;5072859;28;20395;-55
2024/03/01 06:00:09;;;;;;;105.57;36.75;;;;;;;;;;5080797;28;20031;-54
2024/03/01 06:02:35;;;;;;;105.82;38.78;;;;;;;;;;5082965;28;20048;-53
2024/03/01 06:05:01;;;;;;;112.13;37.78;;;;;;;;;;5074941;28;20031;-50
2024/03/01 06:07:27;;;;;;;121.85;40.78;;;;;;;;;;5075783;28;20051;-53
2024/03/01 06:09:53;;;;;;;114.10;39.17;;;;;;;;;;5082025;28;20514;-53
2024/03/01 06:12:19;;;;;;;119.82;39.40;;;;;;;;;;5071416;28;20139;-50
2024/03/01 06:14:45;;;;;;;115.35;39.63;;;;;;;;;;5068665;28;20094;-54
2024/03/01 06:17:11;;;;;;;99.20;36.67;;;;;;;;;;5089631;28;20059;-54
2024/03/01 06:19:37;;;;;;;118.75;38.88;;;;;;;;;;5087378;28;20025;-53
2024/03/01 06:22:03;;;;;;;110.75;38.85;;;;;;;;;;5078484;28;20028;-53
2024/03/01 06:24:29;;;;;;;103.38;37.63;;;;;;;;;;5093368;28;20017;-53
2024/03/01 06:26:55;;;;;;;114.60;37.38;;;;;;;;;;5091543;28;20031;-53
2024/03/01 06:29:21;;;;;;;119.60;38.28;;;;;;;;;;5100989;28;20039;-53
2024/03/01 06:31:47;;;;;;;122.40;40.15;;;;;;;;;;5097647;28;20487;-53
2024/03/01 06:34:13;;;;;;;118.40;40.60;;;;;;;;;;5073221;28;20460;-53
2024/03/01 06:36:39;;;;;;;115.85;39.00;;;;;;;;;;5094830;28;20103;-53
2024/03/01 06:39:06;;;;;;;104.28;36.75;;;;;;;;;;5089152;28;20394;-54
2024/03/01 06:41:32;;;;;;;121.82;39.90;;;;;;;;;;5087993;28;20096;-53
2024/03/01 06:43:58;;;;;;;102.65;37.35;;;;;;;;;;5090804;28;20381;-54
2024/03/01 06:46:24;;;;;;;108.75;38.97;;;;;;;;;;5093114;28;20442;-53
2024/03/01 06:48:50;;;;;;;107.28;38.53;;;;;;;;;;5090887;28;20024;-54
2024/03/01 06:51:16;;;;;;;111.93;38.17;;;;;;;;;;5091154;28;20111;-52
2024/03/01 06:53:43;;;;;;;113.72;38.13;;;;;;;;;;5091426;28;20048;-54
2024/03/01 06:56:09;;;;;;;108.63;39.67;;;;;;;;;;5090920;28;20114;-54
2024/03/01 06:58:35;;;;;;;116.95;40.33;;;;;;;;;;5084639;28;20032;-54
2024/03/01 07:01:04;;;;;;;110.15;39.45;;;;;;;;;;5074766;28;20108;-53
2024/03/01 07:03:30;;;;;;;114.75;38.90;;;;;;;;;;5091396;28;20024;-53
2024/03/01 07:05:56;;;;;;;114.82;39.83;;;;;;;;;;5097518;28;20146;-54
2024/03/01 07:08:22;;;;;;;119.43;39.45;;;;;;;;;;5091508;28;20067;-55
2024/03/01 07:10:48;;;;;;;112.22;37.75;;;;;;;;;;5091391;28;20398;-53
2024/03/01 07:13:14;;;;;;;121.47;39.97;;;;;;;;;;5090857;28;20036;-54
2024/03/01 07:15:40;;;;;;;108.75;36.90;;;;;;;;;;5090911;28;20077;-54
2024/03/01 07:18:06;;;;;;;105.07;36.75;;;;;;;;;;5077691;28;20048;-54
2024/03/01 07:20:32;;;;;;;107.75;38.15;;;;;;;;;;5090047;28;20031;-54
2024/03/01 07:22:58;;;;;;;103.80;36.92;;;;;;;;;;5089766;28;20020;-53
2024/03/01 07:25:24;;;;;;;100.57;37.45;;;;;;;;;;5086623;28;20028;-54
2024/03/01 07:27:50;;;;;;;117.28;38.72;;;;;;;;;;5090301;28;20031;-57
2024/03/01 07:30:16;;;;;;;110.60;38.13;;;;;;;;;;5078163;28;20059;-57
2024/03/01 07:32:42;;;;;;;113.25;38.75;;;;;;;;;;5090141;28;20111;-57
2024/03/01 07:35:08;;;;;;;106.20;37.22;;;;;;;;;;5089721;28;20089;-55
2024/03/01 07:37:34;;;;;;;97.82;35.22;;;;;;;;;;5067999;28;20185;-57
2024/03/01 07:40:00;;;;;;;99.75;36.42;;;;;;;;;;5093164;28;20547;-55
2024/03/01 07:42:26;;;;;;;116.05;37.10;;;;;;;;;;5087363;28;20158;-55
2024/03/01 07:44:55;;;;;;;99.88;37.03;;;;;;;;;;5095241;28;20060;-56
2024/03/01 07:47:21;;;;;;;102.65;37.22;;;;;;;;;;5097854;28;20081;-56
2024/03/01 07:49:50;;;;;;;98.35;37.03;;;;;;;;;;5079043;28;20035;-54
2024/03/01 07:52:16;;;;;;;97.20;34.65;;;;;;;;;;5086961;28;20521;-56
2024/03/01 07:54:42;;;;;;;100.47;38.00;;;;;;;;;;5084966;28;20050;-57
2024/03/01 07:57:09;;;;;;;95.55;36.33;;;;;;;;;;5096398;28;20032;-55
2024/03/01 07:59:35;;;;;;;98.68;36.50;;;;;;;;;;5091239;28;20032;-55
2024/03/01 08:02:01;;;;;;;97.43;35.33;;;;;;;;;;5079597;28;20078;-56
2024/03/01 08:04:27;;;;;;;91.95;35.13;;;;;;;;;;5091195;28;20028;-57
2024/03/01 08:06:53;;;;;;;90.45;33.58;;;;;;;;;;5078934;28;20020;-57
2024/03/01 08:09:27;;;;;;;83.18;33.30;;;;;;;;;;5097693;28;20407;-57
2024/03/01 08:11:54;;;;;;;81.55;31.27;;;;;;;;;;5079866;28;20039;-56
2024/03/01 08:14:41;;;;;;;90.15;33.75;;;;;;;;;;5087997;28;20065;-56
2024/03/01 08:17:08;;;;;;;83.35;32.38;;;;;;;;;;5082444;28;20040;-56
2024/03/01 08:19:35;;;;;;;85.65;34.08;;;;;;;;;;5079396;28;20025;-56
2024/03/01 08:22:15;;;;;;;81.75;32.22;;;;;;;;;;5077691;28;20439;-53
2024/03/01 08:24:42;;;;;;;81.15;32.40;;;;;;;;;;5086689;28;20020;-56
2024/03/01 08:27:09;;;;;;;80.07;32.13;;;;;;;;;;5076939;28;20049;-57
2024/03/01 08:29:36;;;;;;;72.88;29.13;;;;;;;;;;5077050;28;20099;-57
2024/03/01 08:32:02;;;;;;;74.43;29.98;;;;;;;;;;5068736;28;20049;-55
2024/03/01 08:34:36;;;;;;;72.93;29.48;;;;;;;;;;5075745;28;20036;-56
2024/03/01 08:37:02;;;;;;;75.53;28.92;;;;;;;;;;5077028;28;20032;-58
2024/03/01 08:39:28;;;;;;;68.07;29.00;;;;;;;;;;5087940;28;20028;-58
2024/03/01 08:41:56;;;;;;;66.60;28.55;;;;;;;;;;5085383;28;20031;-58
2024/03/01 08:44:21;;;;;;;75.13;30.05;;;;;;;;;;5086387;28;20427;-58
2024/03/01 08:46:47;;;;;;;66.15;28.83;;;;;;;;;;5076683;28;20028;-57
2024/03/01 08:49:32;;;;;;;69.95;29.23;;;;;;;;;;5076756;28;20040;-57
2024/03/01 08:51:58;;;;;;;69.88;29.02;;;;;;;;;;5071028;28;20028;-57
2024/03/01 08:54:26;;;;;;;61.35;28.13;;;;;;;;;;5075493;28;20130;-58
2024/03/01 08:57:01;;;;;;;64.78;26.23;;;;;;;;;;5072796;28;20046;-58
2024/03/01 08:59:33;;;;;;;60.58;24.98;;;;;;;;;;5066819;28;20056;-58
2024/03/01 09:01:59;;;;;;;54.65;23.65;;;;;;;;;;5073183;28;20031;-58
2024/03/01 09:04:31;;;;;;;53.90;22.83;;;;;;;;;;5072795;28;20123;-57
2024/03/01 09:07:00;;;;;;;52.58;22.38;;;;;;;;;;5072345;28;20029;-58
2024/03/01 09:09:26;;;;;;;49.33;22.95;;;;;;;;;;5072750;28;20476;-57
2024/03/01 09:11:53;;;;;;;52.60;22.88;;;;;;;;;;5077400;28;20032;-57
2024/03/01 09:14:26;;;;;;;51.15;22.67;;;;;;;;;;5077927;28;20028;-58
2024/03/01 09:16:52;;;;;;;47.10;21.88;;;;;;;;;;5074047;28;20066;-58
2024/03/01 09:19:19;;;;;;;51.15;23.27;;;;;;;;;;5079439;28;20111;-58
2024/03/01 09:21:46;;;;;;;51.28;22.60;;;;;;;;;;5074799;28;20106;-56
2024/03/01 09:24:14;;;;;;;52.17;22.35;;;;;;;;;;5073265;28;20039;-58
2024/03/01 09:26:40;;;;;;;50.53;22.38;;;;;;;;;;5066296;28;20032;-58
2024/03/01 09:29:06;;;;;;;45.90;21.70;;;;;;;;;;5075921;28;20345;-58
2024/03/01 09:31:32;;;;;;;41.83;19.48;;;;;;;;;;5079092;28;20068;-58
2024/03/01 09:34:00;;;;;;;41.22;18.15;;;;;;;;;;5073120;28;20029;-57
2024/03/01 09:36:26;;;;;;;37.25;18.67;;;;;;;;;;5072317;28;20035;-55
2024/03/01 09:38:54;;;;;;;40.80;19.08;;;;;;;;;;5076873;28;20563;-58
2024/03/01 09:41:46;;;;;;;43.72;21.05;;;;;;;;;;5075511;28;20475;-58
2024/03/01 09:44:35;;;;;;;43.80;20.08;;;;;;;;;;5070694;28;20388;-57
2024/03/01 09:47:14;;;;;;;41.88;20.13;;;;;;;;;;5061101;28;20492;-57
2024/03/01 09:49:44;;;;;;;49.58;19.75;;;;;;;;;;5074921;28;20024;-57
2024/03/01 09:52:26;;;;;;;44.65;18.92;;;;;;;;;;5075116;28;20337;-57
2024/03/01 09:55:04;;;;;;;35.70;18.10;;;;;;;;;;5070896;28;20044;-57
2024/03/01 09:57:49;;;;;;;36.05;17.05;;;;;;;;;;5057640;28;20047;-57
2024/03/01 10:00:33;;;;;;;39.47;18.58;;;;;;;;;;5076156;28;20032;-57
2024/03/01 10:03:04;;;;;;;35.72;17.38;;;;;;;;;;5071646;28;20107;-56
2024/03/01 10:05:33;;;;;;;39.00;17.38;;;;;;;;;;5072095;28;20507;-56
2024/03/01 10:08:05;;;;;;;42.53;18.30;;;;;;;;;;5059087;28;20025;-58
2024/03/01 10:10:44;;;;;;;38.22;18.50;;;;;;;;;;5081148;28;20111;-57
2024/03/01 10:13:29;;;;;;;40.28;18.17;;;;;;;;;;5081990;28;20450;-57
2024/03/01 10:16:04;;;;;;;35.22;16.75;;;;;;;;;;5072208;28;20090;-56
2024/03/01 10:18:41;;;;;;;38.65;17.45;;;;;;;;;;5083993;28;20143;-57
2024/03/01 10:21:24;;;;;;;36.17;17.10;;;;;;;;;;5090959;28;20053;-57
2024/03/01 10:23:55;;;;;;;27.77;15.23;;;;;;;;;;5093366;28;20020;-57
2024/03/01 10:26:28;;;;;;;33.80;17.73;;;;;;;;;;5084967;28;20047;-55
2024/03/01 10:29:19;;;;;;;36.90;17.77;;;;;;;;;;5091380;28;20126;-57
2024/03/01 10:31:52;;;;;;;31.63;15.13;;;;;;;;;;5091766;28;20197;-56
2024/03/01 10:34:42;;;;;;;31.25;16.92;;;;;;;;;;5092154;28;20764;-58
2024/03/01 10:37:14;;;;;;;32.63;15.98;;;;;;;;;;5083160;28;20043;-55
2024/03/01 10:39:47;;;;;;;39.22;16.67;;;;;;;;;;5086966;28;20364;-54
2024/03/01 10:42:25;;;;;;;31.33;15.75;;;;;;;;;;5090346;28;20051;-58
2024/03/01 10:45:20;;;;;;;31.50;15.50;;;;;;;;;;5083660;28;20081;-58
2024/03/01 10:47:47;;;;;;;34.58;15.60;;;;;;;;;;5087672;28;20446;-56
2024/03/01 10:50:13;;;;;;;36.15;16.58;;;;;;;;;;5092963;28;20036;-57
2024/03/01 10:52:42;;;;;;;29.80;14.80;;;;;;;;;;5081727;28;20028;-56
2024/03/01 10:55:21;;;;;;;31.35;15.55;;;;;;;;;;5092846;28;20363;-57
2024/03/01 10:57:50;;;;;;;29.10;15.13;;;;;;;;;;5098658;28;20032;-54
2024/03/01 11:00:19;;;;;;;32.10;15.18;;;;;;;;;;5099247;28;20016;-54
2024/03/01 11:02:48;;;;;;;36.97;16.60;;;;;;;;;;5082802;28;20020;-55
2024/03/01 11:05:34;;;;;;;37.15;15.95;;;;;;;;;;5092415;28;20031;-54
2024/03/01 11:08:03;;;;;;;35.92;15.75;;;;;;;;;;5086522;28;20032;-54
2024/03/01 11:10:55;;;;;;;32.53;15.95;;;;;;;;;;5085519;28;20103;-55
2024/03/01 11:13:22;;;;;;;30.25;14.20;;;;;;;;;;5097534;28;20065;-55
2024/03/01 11:15:48;;;;;;;37.65;16.60;;;;;;;;;;5092262;28;20036;-54
2024/03/01 11:18:17;;;;;;;32.20;15.10;;;;;;;;;;5102959;28;20135;-54
2024/03/01 11:21:01;;;;;;;37.67;15.98;;;;;;;;;;5093284;28;20088;-57
2024/03/01 11:23:34;;;;;;;34.92;15.57;;;;;;;;;;5096723;28;20043;-55
2024/03/01 11:26:12;;;;;;;34.17;15.30;;;;;;;;;;5093788;28;20051;-53
2024/03/01 11:28:40;;;;;;;37.45;17.08;;;;;;;;;;5089541;28;20062;-50
2024/03/01 11:31:14;;;;;;;39.47;17.38;;;;;;;;;;5085783;28;20032;-54
2024/03/01 11:33:41;;;;;;;38.83;17.77;;;;;;;;;;5089644;28;20054;-55
2024/03/01 11:36:07;;;;;;;39.63;17.52;;;;;;;;;;5090175;28;20047;-54
2024/03/01 11:38:37;;;;;;;35.20;18.13;;;;;;;;;;5094052;28;20114;-52
2024/03/01 11:41:07;;;;;;;36.00;17.50;;;;;;;;;;5090893;28;20036;-50
2024/03/01 11:43:48;;;;;;;35.90;17.23;;;;;;;;;;5095139;28;20495;-55
2024/03/01 11:46:19;;;;;;;34.78;16.35;;;;;;;;;;5064430;28;20076;-55
2024/03/01 11:48:51;;;;;;;34.45;17.25;;;;;;;;;;5090972;28;20058;-54
2024/03/01 11:51:31;;;;;;;32.63;15.52;;;;;;;;;;5090652;28;20024;-55
2024/03/01 11:54:06;;;;;;;41.05;16.73;;;;;;;;;;5083110;28;20032;-54
2024/03/01 11:56:51;;;;;;;33.13;15.70;;;;;;;;;;5082732;28;20027;-55
2024/03/01 11:59:30;;;;;;;33.38;15.95;;;;;;;;;;5089700;28;20523;-55
2024/03/01 12:02:11;;;;;;;34.85;16.23;;;;;;;;;;5087198;28;20086;-55
2024/03/01 12:04:52;;;;;;;34.25;15.13;;;;;;;;;;5085738;28;20032;-54
2024/03/01 12:07:30;;;;;;;35.30;16.75;;;;;;;;;;5095763;28;20364;-52
2024/03/01 12:09:57;;;;;;;30.33;14.27;;;;;;;;;;5083427;28;20094;-51
2024/03/01 12:12:42;;;;;;;32.38;14.82;;;;;;;;;;5090079;28;20578;-51
2024/03/01 12:15:09;;;;;;;29.00;14.40;;;;;;;;;;5090517;28;20035;-53
2024/03/01 12:17:43;;;;;;;35.35;15.65;;;;;;;;;;5090460;28;20698;-51
2024/03/01 12:20:10;;;;;;;34.83;17.38;;;;;;;;;;5073511;28;20025;-52
2024/03/01 12:23:02;;;;;;;31.13;16.23;;;;;;;;;;5086444;28;20025;-51
2024/03/01 12:25:28;;;;;;;36.35;17.83;;;;;;;;;;5086931;28;20766;-53
2024/03/01 12:28:08;;;;;;;36.67;17.73;;;;;;;;;;5093143;28;20064;-50
2024/03/01 12:30:36;;;;;;;40.95;16.13;;;;;;;;;;5075959;28;20115;-50
2024/03/01 12:33:17;;;;;;;36.33;17.73;;;;;;;;;;5087601;28;20028;-51
2024/03/01 12:35:51;;;;;;;36.72;17.60;;;;;;;;;;5086388;28;20028;-50
2024/03/01 12:38:37;;;;;;;34.80;16.65;;;;;;;;;;5091672;28;20020;-52
2024/03/01 12:41:22;;;;;;;45.38;18.92;;;;;;;;;;5100603;28;20016;-52
2024/03/01 12:44:26;;;;;;;31.95;17.17;;;;;;;;;;5085139;28;20025;-51
2024/03/01 12:46:58;;;;;;;40.83;17.70;;;;;;;;;;5052981;28;20198;-52
2024/03/01 12:49:30;;;;;;;36.55;18.55;;;;;;;;;;5058676;28;20037;-49
2024/03/01 12:52:02;;;;;;;38.90;18.38;;;;;;;;;;5077277;28;20036;-51
2024/03/01 12:54:55;;;;;;;39.00;18.17;;;;;;;;;;5092771;28;20016;-51
2024/03/01 12:57:32;;;;;;;36.70;18.40;;;;;;;;;;5095872;28;20118;-51
2024/03/01 13:00:13;;;;;;;41.38;18.25;;;;;;;;;;5097458;28;20370;-53
2024/03/01 13:02:51;;;;;;;36.75;16.90;;;;;;;;;;5084794;28;20028;-51
2024/03/01 13:05:26;;;;;;;37.47;18.55;;;;;;;;;;5090507;28;20019;-52
2024/03/01 13:07:53;;;;;;;37.28;17.42;;;;;;;;;;5083827;28;20024;-48
2024/03/01 13:10:22;;;;;;;40.40;18.63;;;;;;;;;;5089693;28;20115;-48
2024/03/01 13:12:50;;;;;;;35.50;17.73;;;;;;;;;;5064362;28;20025;-49
2024/03/01 13:15:21;;;;;;;39.00;16.67;;;;;;;;;;5083379;28;20487;-50
2024/03/01 13:17:56;;;;;;;35.85;18.08;;;;;;;;;;5087915;28;20963;-51
2024/03/01 13:20:43;;;;;;;43.40;18.95;;;;;;;;;;5093222;28;20025;-49
2024/03/01 13:23:23;;;;;;;37.70;18.63;;;;;;;;;;5081914;28;20032;-51
2024/03/01 13:25:56;;;;;;;39.85;18.02;;;;;;;;;;5086094;28;20468;-49
2024/03/01 13:28:23;;;;;;;36.38;18.25;;;;;;;;;;5083450;28;20355;-51
2024/03/01 13:30:51;;;;;;;38.28;19.05;;;;;;;;;;5089173;28;20032;-49
2024/03/01 13:33:23;;;;;;;41.60;17.98;;;;;;;;;;5085644;28;20106;-52
2024/03/01 13:35:52;;;;;;;36.38;18.48;;;;;;;;;;5092306;28;20027;-52
2024/03/01 13:38:28;;;;;;;41.42;18.67;;;;;;;;;;5088089;28;20503;-51
2024/03/01 13:40:59;;;;;;;33.35;17.20;;;;;;;;;;5082940;28;20032;-50
2024/03/01 13:43:30;;;;;;;33.50;17.08;;;;;;;;;;5085132;28;20392;-50
2024/03/01 13:46:03;;;;;;;40.85;19.10;;;;;;;;;;5084248;28;20084;-53
2024/03/01 13:48:34;;;;;;;37.03;16.42;;;;;;;;;;5087657;28;20109;-51
2024/03/01 13:51:01;;;;;;;39.08;18.70;;;;;;;;;;5090413;28;20028;-51
2024/03/01 13:53:27;;;;;;;34.25;18.52;;;;;;;;;;5090688;28;20456;-50
2024/03/01 13:55:54;;;;;;;36.47;17.67;;;;;;;;;;5081937;28;20055;-49
2024/03/01 13:58:21;;;;;;;38.65;17.80;;;;;;;;;;5077076;28;20036;-50
2024/03/01 14:00:56;;;;;;;39.75;18.00;;;;;;;;;;5088048;28;20021;-49
2024/03/01 14:03:22;;;;;;;39.35;17.77;;;;;;;;;;5089573;28;20039;-51
2024/03/01 14:05:50;;;;;;;38.38;17.88;;;;;;;;;;5084631;28;20028;-51
2024/03/01 14:08:20;;;;;;;35.33;17.33;;;;;;;;;;5088876;28;20051;-51
2024/03/01 14:10:48;;;;;;;45.75;19.65;;;;;;;;;;5081399;28;20024;-50
2024/03/01 14:13:14;;;;;;;39.28;18.33;;;;;;;;;;5085456;28;20028;-48
2024/03/01 14:15:40;;;;;;;34.88;16.38;;;;;;;;;;5083872;28;20024;-51
2024/03/01 14:18:06;;;;;;;45.15;18.48;;;;;;;;;;5095180;28;20040;-52
2024/03/01 14:20:32;;;;;;;38.20;19.58;;;;;;;;;;5098554;28;20524;-52
2024/03/01 14:22:58;;;;;;;31.88;16.23;;;;;;;;;;5085017;28;20423;-50
2024/03/01 14:25:24;;;;;;;36.47;16.80;;;;;;;;;;5085882;28;20046;-50